sensor_id;sensor_type;location;lat;lon;timestamp;P1;durP1;ratioP1;P2;durP2;ratioP2
23474;SDS011;11910;52.086;21.066;2022-11-23T00:00:22;116.88;;;42.92;;
23474;SDS011;11910;52.086;21.066;2022-11-23T00:02:55;121.95;;;44.03;;
23474;SDS011;11910;52.086;21.066;2022-11-23T00:05:22;114.35;;;43.72;;
23474;SDS011;11910;52.086;21.066;2022-11-23T00:07:48;122.07;;;44.55;;
23474;SDS011;11910;52.086;21.066;2022-11-23T00:10:14;122.32;;;44.88;;
23474;SDS011;11910;52.086;21.066;2022-11-23T00:12:40;128.85;;;44.40;;
23474;SDS011;11910;52.086;21.066;2022-11-23T00:15:06;111.00;;;42.72;;
23474;SDS011;11910;52.086;21.066;2022-11-23T00:17:32;116.03;;;42.60;;
23474;SDS011;11910;52.086;21.066;2022-11-23T00:19:58;117.43;;;41.92;;
23474;SDS011;11910;52.086;21.066;2022-11-23T00:22:23;127.97;;;45.50;;
23474;SDS011;11910;52.086;21.066;2022-11-23T00:24:49;125.75;;;43.25;;
23474;SDS011;11910;52.086;21.066;2022-11-23T00:27:15;111.70;;;43.42;;
23474;SDS011;11910;52.086;21.066;2022-11-23T00:29:40;118.25;;;43.72;;
23474;SDS011;11910;52.086;21.066;2022-11-23T00:32:06;122.97;;;44.65;;
23474;SDS011;11910;52.086;21.066;2022-11-23T00:34:32;115.80;;;43.08;;
23474;SDS011;11910;52.086;21.066;2022-11-23T00:36:58;119.20;;;44.45;;
23474;SDS011;11910;52.086;21.066;2022-11-23T00:39:23;123.78;;;43.28;;
23474;SDS011;11910;52.086;21.066;2022-11-23T00:41:49;108.07;;;41.90;;
23474;SDS011;11910;52.086;21.066;2022-11-23T00:44:15;119.35;;;43.33;;
23474;SDS011;11910;52.086;21.066;2022-11-23T00:46:40;109.40;;;40.55;;
23474;SDS011;11910;52.086;21.066;2022-11-23T00:49:06;114.40;;;41.35;;
23474;SDS011;11910;52.086;21.066;2022-11-23T00:51:32;115.75;;;42.83;;
23474;SDS011;11910;52.086;21.066;2022-11-23T00:54:00;115.72;;;42.42;;
23474;SDS011;11910;52.086;21.066;2022-11-23T00:56:27;116.38;;;41.20;;
23474;SDS011;11910;52.086;21.066;2022-11-23T00:58:55;110.15;;;41.33;;
23474;SDS011;11910;52.086;21.066;2022-11-23T01:01:23;112.45;;;41.15;;
23474;SDS011;11910;52.086;21.066;2022-11-23T01:03:52;119.88;;;42.55;;
23474;SDS011;11910;52.086;21.066;2022-11-23T01:06:22;110.10;;;42.47;;
23474;SDS011;11910;52.086;21.066;2022-11-23T01:08:51;112.47;;;41.28;;
23474;SDS011;11910;52.086;21.066;2022-11-23T01:11:19;108.88;;;40.80;;
23474;SDS011;11910;52.086;21.066;2022-11-23T01:13:45;112.13;;;41.08;;
23474;SDS011;11910;52.086;21.066;2022-11-23T01:16:15;98.28;;;38.92;;
23474;SDS011;11910;52.086;21.066;2022-11-23T01:18:46;111.25;;;39.92;;
23474;SDS011;11910;52.086;21.066;2022-11-23T01:21:12;114.70;;;40.90;;
23474;SDS011;11910;52.086;21.066;2022-11-23T01:23:37;103.30;;;39.88;;
23474;SDS011;11910;52.086;21.066;2022-11-23T01:26:07;108.28;;;40.70;;
23474;SDS011;11910;52.086;21.066;2022-11-23T01:28:34;97.65;;;38.95;;
23474;SDS011;11910;52.086;21.066;2022-11-23T01:31:04;106.68;;;39.00;;
23474;SDS011;11910;52.086;21.066;2022-11-23T01:33:31;96.00;;;37.20;;
23474;SDS011;11910;52.086;21.066;2022-11-23T01:35:56;92.32;;;34.50;;
23474;SDS011;11910;52.086;21.066;2022-11-23T01:38:22;84.93;;;34.85;;
23474;SDS011;11910;52.086;21.066;2022-11-23T01:40:47;98.60;;;36.40;;
23474;SDS011;11910;52.086;21.066;2022-11-23T01:43:14;92.65;;;35.45;;
23474;SDS011;11910;52.086;21.066;2022-11-23T01:45:43;98.47;;;37.38;;
23474;SDS011;11910;52.086;21.066;2022-11-23T01:48:30;95.85;;;37.47;;
23474;SDS011;11910;52.086;21.066;2022-11-23T01:51:01;96.50;;;36.73;;
23474;SDS011;11910;52.086;21.066;2022-11-23T01:53:29;101.70;;;37.63;;
23474;SDS011;11910;52.086;21.066;2022-11-23T01:55:58;99.68;;;36.65;;
23474;SDS011;11910;52.086;21.066;2022-11-23T01:58:26;94.38;;;34.85;;
23474;SDS011;11910;52.086;21.066;2022-11-23T02:00:53;95.95;;;37.15;;
23474;SDS011;11910;52.086;21.066;2022-11-23T02:03:19;101.88;;;37.33;;
23474;SDS011;11910;52.086;21.066;2022-11-23T02:05:48;95.50;;;35.78;;
23474;SDS011;11910;52.086;21.066;2022-11-23T02:08:18;102.68;;;36.38;;
23474;SDS011;11910;52.086;21.066;2022-11-23T02:10:45;104.30;;;36.90;;
23474;SDS011;11910;52.086;21.066;2022-11-23T02:13:12;87.60;;;35.20;;
23474;SDS011;11910;52.086;21.066;2022-11-23T02:15:39;98.22;;;37.42;;
23474;SDS011;11910;52.086;21.066;2022-11-23T02:18:06;90.20;;;34.97;;
23474;SDS011;11910;52.086;21.066;2022-11-23T02:20:37;91.43;;;33.85;;
23474;SDS011;11910;52.086;21.066;2022-11-23T02:28:03;81.82;;;31.77;;
23474;SDS011;11910;52.086;21.066;2022-11-23T02:30:30;93.28;;;34.15;;
23474;SDS011;11910;52.086;21.066;2022-11-23T02:32:57;88.38;;;33.40;;
23474;SDS011;11910;52.086;21.066;2022-11-23T02:35:23;85.60;;;32.75;;
23474;SDS011;11910;52.086;21.066;2022-11-23T02:37:48;84.78;;;32.38;;
23474;SDS011;11910;52.086;21.066;2022-11-23T02:40:19;82.22;;;32.63;;
23474;SDS011;11910;52.086;21.066;2022-11-23T02:42:54;87.13;;;32.90;;
23474;SDS011;11910;52.086;21.066;2022-11-23T02:45:27;84.80;;;32.88;;
23474;SDS011;11910;52.086;21.066;2022-11-23T02:48:09;78.60;;;29.85;;
23474;SDS011;11910;52.086;21.066;2022-11-23T02:50:35;77.50;;;29.92;;
23474;SDS011;11910;52.086;21.066;2022-11-23T02:53:01;78.55;;;30.83;;
23474;SDS011;11910;52.086;21.066;2022-11-23T02:55:26;80.07;;;31.25;;
23474;SDS011;11910;52.086;21.066;2022-11-23T02:57:52;74.65;;;29.13;;
23474;SDS011;11910;52.086;21.066;2022-11-23T03:00:18;64.20;;;28.02;;
23474;SDS011;11910;52.086;21.066;2022-11-23T03:02:43;64.95;;;28.63;;
23474;SDS011;11910;52.086;21.066;2022-11-23T03:05:09;68.63;;;30.23;;
23474;SDS011;11910;52.086;21.066;2022-11-23T03:07:34;77.82;;;30.23;;
23474;SDS011;11910;52.086;21.066;2022-11-23T03:10:00;76.30;;;31.20;;
23474;SDS011;11910;52.086;21.066;2022-11-23T03:12:26;77.95;;;30.80;;
23474;SDS011;11910;52.086;21.066;2022-11-23T03:14:52;71.55;;;29.52;;
23474;SDS011;11910;52.086;21.066;2022-11-23T03:17:17;69.43;;;28.95;;
23474;SDS011;11910;52.086;21.066;2022-11-23T03:19:43;67.82;;;27.98;;
23474;SDS011;11910;52.086;21.066;2022-11-23T03:22:08;73.70;;;29.98;;
23474;SDS011;11910;52.086;21.066;2022-11-23T03:24:34;68.05;;;28.48;;
23474;SDS011;11910;52.086;21.066;2022-11-23T03:27:00;76.63;;;29.60;;
23474;SDS011;11910;52.086;21.066;2022-11-23T03:29:26;64.35;;;27.27;;
23474;SDS011;11910;52.086;21.066;2022-11-23T03:31:52;73.20;;;30.00;;
23474;SDS011;11910;52.086;21.066;2022-11-23T03:34:18;68.28;;;28.85;;
23474;SDS011;11910;52.086;21.066;2022-11-23T03:36:44;69.85;;;29.77;;
23474;SDS011;11910;52.086;21.066;2022-11-23T03:39:09;68.65;;;28.83;;
23474;SDS011;11910;52.086;21.066;2022-11-23T03:41:35;61.55;;;27.45;;
23474;SDS011;11910;52.086;21.066;2022-11-23T03:44:01;67.60;;;29.20;;
23474;SDS011;11910;52.086;21.066;2022-11-23T03:46:27;71.50;;;29.08;;
23474;SDS011;11910;52.086;21.066;2022-11-23T03:48:52;70.20;;;28.17;;
23474;SDS011;11910;52.086;21.066;2022-11-23T03:51:18;69.68;;;28.63;;
23474;SDS011;11910;52.086;21.066;2022-11-23T03:53:43;58.42;;;25.90;;
23474;SDS011;11910;52.086;21.066;2022-11-23T03:56:09;62.88;;;27.00;;
23474;SDS011;11910;52.086;21.066;2022-11-23T03:58:35;55.30;;;24.85;;
23474;SDS011;11910;52.086;21.066;2022-11-23T04:01:00;54.67;;;24.30;;
23474;SDS011;11910;52.086;21.066;2022-11-23T04:03:26;53.25;;;24.30;;
23474;SDS011;11910;52.086;21.066;2022-11-23T04:05:51;56.03;;;24.63;;
23474;SDS011;11910;52.086;21.066;2022-11-23T04:08:17;57.58;;;25.70;;
23474;SDS011;11910;52.086;21.066;2022-11-23T04:10:43;60.50;;;26.63;;
23474;SDS011;11910;52.086;21.066;2022-11-23T04:13:09;55.08;;;24.88;;
23474;SDS011;11910;52.086;21.066;2022-11-23T04:15:35;53.33;;;24.23;;
23474;SDS011;11910;52.086;21.066;2022-11-23T04:18:00;57.42;;;25.63;;
23474;SDS011;11910;52.086;21.066;2022-11-23T04:20:26;64.20;;;26.60;;
23474;SDS011;11910;52.086;21.066;2022-11-23T04:22:51;60.00;;;26.05;;
23474;SDS011;11910;52.086;21.066;2022-11-23T04:25:17;59.92;;;26.83;;
23474;SDS011;11910;52.086;21.066;2022-11-23T04:27:43;56.78;;;25.25;;
23474;SDS011;11910;52.086;21.066;2022-11-23T04:30:09;61.05;;;27.05;;
23474;SDS011;11910;52.086;21.066;2022-11-23T04:32:35;59.10;;;25.40;;
23474;SDS011;11910;52.086;21.066;2022-11-23T04:35:01;61.55;;;27.17;;
23474;SDS011;11910;52.086;21.066;2022-11-23T04:37:27;60.58;;;26.00;;
23474;SDS011;11910;52.086;21.066;2022-11-23T04:39:52;57.47;;;26.27;;
23474;SDS011;11910;52.086;21.066;2022-11-23T04:42:18;56.92;;;25.80;;
23474;SDS011;11910;52.086;21.066;2022-11-23T04:44:44;49.53;;;23.17;;
23474;SDS011;11910;52.086;21.066;2022-11-23T04:47:10;58.30;;;24.50;;
23474;SDS011;11910;52.086;21.066;2022-11-23T04:49:36;57.08;;;24.40;;
23474;SDS011;11910;52.086;21.066;2022-11-23T04:52:02;61.03;;;24.77;;
23474;SDS011;11910;52.086;21.066;2022-11-23T04:54:28;60.83;;;25.65;;
23474;SDS011;11910;52.086;21.066;2022-11-23T04:56:54;56.88;;;24.45;;
23474;SDS011;11910;52.086;21.066;2022-11-23T04:59:20;58.38;;;24.90;;
23474;SDS011;11910;52.086;21.066;2022-11-23T05:01:47;59.15;;;25.10;;
23474;SDS011;11910;52.086;21.066;2022-11-23T05:04:18;57.80;;;24.50;;
23474;SDS011;11910;52.086;21.066;2022-11-23T05:06:44;52.30;;;24.42;;
23474;SDS011;11910;52.086;21.066;2022-11-23T05:09:10;47.92;;;22.77;;
23474;SDS011;11910;52.086;21.066;2022-11-23T05:11:36;52.92;;;23.08;;
23474;SDS011;11910;52.086;21.066;2022-11-23T05:14:02;53.80;;;23.98;;
23474;SDS011;11910;52.086;21.066;2022-11-23T05:16:28;51.25;;;23.30;;
23474;SDS011;11910;52.086;21.066;2022-11-23T05:18:54;54.05;;;24.92;;
23474;SDS011;11910;52.086;21.066;2022-11-23T05:21:19;58.70;;;26.38;;
23474;SDS011;11910;52.086;21.066;2022-11-23T05:23:45;56.70;;;24.52;;
23474;SDS011;11910;52.086;21.066;2022-11-23T05:26:11;52.95;;;24.17;;
23474;SDS011;11910;52.086;21.066;2022-11-23T05:28:36;47.78;;;22.23;;
23474;SDS011;11910;52.086;21.066;2022-11-23T05:31:03;45.30;;;21.25;;
23474;SDS011;11910;52.086;21.066;2022-11-23T05:33:28;52.42;;;22.65;;
23474;SDS011;11910;52.086;21.066;2022-11-23T05:35:54;48.25;;;22.40;;
23474;SDS011;11910;52.086;21.066;2022-11-23T05:38:20;49.22;;;22.20;;
23474;SDS011;11910;52.086;21.066;2022-11-23T05:40:45;52.65;;;22.52;;
23474;SDS011;11910;52.086;21.066;2022-11-23T05:43:11;52.45;;;22.90;;
23474;SDS011;11910;52.086;21.066;2022-11-23T05:45:37;53.17;;;23.17;;
23474;SDS011;11910;52.086;21.066;2022-11-23T05:48:02;53.10;;;22.33;;
23474;SDS011;11910;52.086;21.066;2022-11-23T05:50:29;51.92;;;22.95;;
23474;SDS011;11910;52.086;21.066;2022-11-23T05:52:56;52.42;;;23.55;;
23474;SDS011;11910;52.086;21.066;2022-11-23T05:55:22;51.95;;;23.45;;
23474;SDS011;11910;52.086;21.066;2022-11-23T05:57:48;50.95;;;23.08;;
23474;SDS011;11910;52.086;21.066;2022-11-23T06:00:14;51.15;;;22.10;;
23474;SDS011;11910;52.086;21.066;2022-11-23T06:02:40;51.45;;;23.38;;
23474;SDS011;11910;52.086;21.066;2022-11-23T06:05:06;45.70;;;23.13;;
23474;SDS011;11910;52.086;21.066;2022-11-23T06:07:33;46.83;;;23.02;;
23474;SDS011;11910;52.086;21.066;2022-11-23T06:09:59;47.10;;;22.10;;
23474;SDS011;11910;52.086;21.066;2022-11-23T06:12:26;55.13;;;24.13;;
23474;SDS011;11910;52.086;21.066;2022-11-23T06:14:53;48.50;;;22.80;;
23474;SDS011;11910;52.086;21.066;2022-11-23T06:17:18;48.63;;;23.23;;
23474;SDS011;11910;52.086;21.066;2022-11-23T06:19:44;49.47;;;24.08;;
23474;SDS011;11910;52.086;21.066;2022-11-23T06:22:10;63.63;;;26.35;;
23474;SDS011;11910;52.086;21.066;2022-11-23T06:24:35;59.38;;;28.23;;
23474;SDS011;11910;52.086;21.066;2022-11-23T06:27:01;51.38;;;26.05;;
23474;SDS011;11910;52.086;21.066;2022-11-23T06:29:26;51.70;;;24.95;;
23474;SDS011;11910;52.086;21.066;2022-11-23T06:31:52;49.15;;;22.80;;
23474;SDS011;11910;52.086;21.066;2022-11-23T06:34:18;56.45;;;25.50;;
23474;SDS011;11910;52.086;21.066;2022-11-23T06:36:44;56.28;;;23.83;;
23474;SDS011;11910;52.086;21.066;2022-11-23T06:39:10;50.17;;;23.42;;
23474;SDS011;11910;52.086;21.066;2022-11-23T06:41:35;52.35;;;24.05;;
23474;SDS011;11910;52.086;21.066;2022-11-23T06:44:01;50.60;;;23.45;;
23474;SDS011;11910;52.086;21.066;2022-11-23T06:46:27;50.15;;;23.50;;
23474;SDS011;11910;52.086;21.066;2022-11-23T06:48:53;54.42;;;24.38;;
23474;SDS011;11910;52.086;21.066;2022-11-23T06:51:18;45.35;;;22.63;;
23474;SDS011;11910;52.086;21.066;2022-11-23T06:53:44;49.13;;;23.40;;
23474;SDS011;11910;52.086;21.066;2022-11-23T06:56:10;47.15;;;22.55;;
23474;SDS011;11910;52.086;21.066;2022-11-23T06:58:35;44.42;;;21.98;;
23474;SDS011;11910;52.086;21.066;2022-11-23T07:01:02;46.80;;;23.17;;
23474;SDS011;11910;52.086;21.066;2022-11-23T07:03:29;46.60;;;22.75;;
23474;SDS011;11910;52.086;21.066;2022-11-23T07:05:55;41.83;;;22.08;;
23474;SDS011;11910;52.086;21.066;2022-11-23T07:08:21;44.58;;;21.88;;
23474;SDS011;11910;52.086;21.066;2022-11-23T07:10:47;55.60;;;26.50;;
23474;SDS011;11910;52.086;21.066;2022-11-23T07:13:14;41.65;;;22.30;;
23474;SDS011;11910;52.086;21.066;2022-11-23T07:15:40;41.70;;;21.23;;
23474;SDS011;11910;52.086;21.066;2022-11-23T07:18:06;51.67;;;23.42;;
23474;SDS011;11910;52.086;21.066;2022-11-23T07:20:35;41.03;;;21.08;;
23474;SDS011;11910;52.086;21.066;2022-11-23T07:23:01;43.00;;;20.73;;
23474;SDS011;11910;52.086;21.066;2022-11-23T07:25:29;52.42;;;25.27;;
23474;SDS011;11910;52.086;21.066;2022-11-23T07:27:56;43.55;;;22.52;;
23474;SDS011;11910;52.086;21.066;2022-11-23T07:30:26;39.08;;;20.95;;
23474;SDS011;11910;52.086;21.066;2022-11-23T07:32:55;39.22;;;20.88;;
23474;SDS011;11910;52.086;21.066;2022-11-23T07:35:23;40.47;;;20.45;;
23474;SDS011;11910;52.086;21.066;2022-11-23T07:37:49;34.95;;;19.17;;
23474;SDS011;11910;52.086;21.066;2022-11-23T07:40:14;39.03;;;20.58;;
23474;SDS011;11910;52.086;21.066;2022-11-23T07:42:40;38.17;;;20.38;;
23474;SDS011;11910;52.086;21.066;2022-11-23T07:45:06;38.70;;;19.58;;
23474;SDS011;11910;52.086;21.066;2022-11-23T07:47:33;36.20;;;20.08;;
23474;SDS011;11910;52.086;21.066;2022-11-23T07:49:59;34.92;;;18.45;;
23474;SDS011;11910;52.086;21.066;2022-11-23T07:52:24;32.40;;;17.90;;
23474;SDS011;11910;52.086;21.066;2022-11-23T07:54:50;33.42;;;18.73;;
23474;SDS011;11910;52.086;21.066;2022-11-23T07:57:16;35.17;;;18.95;;
23474;SDS011;11910;52.086;21.066;2022-11-23T07:59:42;33.42;;;18.33;;
23474;SDS011;11910;52.086;21.066;2022-11-23T08:02:11;31.67;;;18.20;;
23474;SDS011;11910;52.086;21.066;2022-11-23T08:04:39;33.25;;;18.02;;
23474;SDS011;11910;52.086;21.066;2022-11-23T08:07:05;36.53;;;21.88;;
23474;SDS011;11910;52.086;21.066;2022-11-23T08:09:31;35.75;;;19.60;;
23474;SDS011;11910;52.086;21.066;2022-11-23T08:11:56;37.88;;;20.35;;
23474;SDS011;11910;52.086;21.066;2022-11-23T08:14:22;31.60;;;18.30;;
23474;SDS011;11910;52.086;21.066;2022-11-23T08:16:49;31.20;;;17.58;;
23474;SDS011;11910;52.086;21.066;2022-11-23T08:19:15;30.80;;;18.52;;
23474;SDS011;11910;52.086;21.066;2022-11-23T08:21:41;29.10;;;18.17;;
23474;SDS011;11910;52.086;21.066;2022-11-23T08:24:07;34.88;;;18.88;;
23474;SDS011;11910;52.086;21.066;2022-11-23T08:26:33;31.50;;;18.83;;
23474;SDS011;11910;52.086;21.066;2022-11-23T08:28:59;32.83;;;18.85;;
23474;SDS011;11910;52.086;21.066;2022-11-23T08:31:24;29.15;;;17.85;;
23474;SDS011;11910;52.086;21.066;2022-11-23T08:33:50;32.45;;;18.85;;
23474;SDS011;11910;52.086;21.066;2022-11-23T08:36:16;30.63;;;18.08;;
23474;SDS011;11910;52.086;21.066;2022-11-23T08:38:41;33.47;;;19.30;;
23474;SDS011;11910;52.086;21.066;2022-11-23T08:41:07;29.67;;;17.25;;
23474;SDS011;11910;52.086;21.066;2022-11-23T08:43:33;30.33;;;17.50;;
23474;SDS011;11910;52.086;21.066;2022-11-23T08:45:59;28.60;;;17.65;;
23474;SDS011;11910;52.086;21.066;2022-11-23T08:48:26;29.17;;;17.63;;
23474;SDS011;11910;52.086;21.066;2022-11-23T08:50:53;30.52;;;18.05;;
23474;SDS011;11910;52.086;21.066;2022-11-23T08:53:22;31.17;;;18.90;;
23474;SDS011;11910;52.086;21.066;2022-11-23T08:55:47;35.13;;;20.80;;
23474;SDS011;11910;52.086;21.066;2022-11-23T08:58:13;30.35;;;19.27;;
23474;SDS011;11910;52.086;21.066;2022-11-23T09:00:39;31.35;;;18.15;;
23474;SDS011;11910;52.086;21.066;2022-11-23T09:03:04;31.70;;;18.92;;
23474;SDS011;11910;52.086;21.066;2022-11-23T09:05:30;28.83;;;17.85;;
23474;SDS011;11910;52.086;21.066;2022-11-23T09:07:59;27.75;;;15.88;;
23474;SDS011;11910;52.086;21.066;2022-11-23T09:10:25;27.35;;;16.88;;
23474;SDS011;11910;52.086;21.066;2022-11-23T09:12:51;31.17;;;18.23;;
23474;SDS011;11910;52.086;21.066;2022-11-23T09:15:17;29.85;;;18.08;;
23474;SDS011;11910;52.086;21.066;2022-11-23T09:17:43;32.05;;;18.92;;
23474;SDS011;11910;52.086;21.066;2022-11-23T09:20:11;29.77;;;18.65;;
23474;SDS011;11910;52.086;21.066;2022-11-23T09:22:37;29.13;;;17.85;;
23474;SDS011;11910;52.086;21.066;2022-11-23T09:25:03;33.17;;;20.17;;
23474;SDS011;11910;52.086;21.066;2022-11-23T09:27:30;29.05;;;18.42;;
23474;SDS011;11910;52.086;21.066;2022-11-23T09:29:56;29.38;;;18.27;;
23474;SDS011;11910;52.086;21.066;2022-11-23T09:32:22;30.77;;;19.48;;
23474;SDS011;11910;52.086;21.066;2022-11-23T09:34:48;33.58;;;20.55;;
23474;SDS011;11910;52.086;21.066;2022-11-23T09:37:14;34.00;;;20.30;;
23474;SDS011;11910;52.086;21.066;2022-11-23T09:39:40;35.47;;;21.00;;
23474;SDS011;11910;52.086;21.066;2022-11-23T09:51:09;32.92;;;19.63;;
23474;SDS011;11910;52.086;21.066;2022-11-23T09:53:19;31.60;;;18.67;;
23474;SDS011;11910;52.086;21.066;2022-11-23T09:55:46;29.05;;;19.40;;
23474;SDS011;11910;52.086;21.066;2022-11-23T09:58:16;31.33;;;19.83;;
23474;SDS011;11910;52.086;21.066;2022-11-23T10:00:47;34.38;;;20.55;;
23474;SDS011;11910;52.086;21.066;2022-11-23T10:03:26;30.00;;;19.13;;
23474;SDS011;11910;52.086;21.066;2022-11-23T10:06:06;29.80;;;18.48;;
23474;SDS011;11910;52.086;21.066;2022-11-23T10:14:56;30.70;;;19.48;;
23474;SDS011;11910;52.086;21.066;2022-11-23T10:23:19;29.48;;;18.80;;
23474;SDS011;11910;52.086;21.066;2022-11-23T10:26:01;35.10;;;21.25;;
23474;SDS011;11910;52.086;21.066;2022-11-23T10:28:28;33.05;;;19.95;;
23474;SDS011;11910;52.086;21.066;2022-11-23T10:33:48;34.15;;;21.10;;
23474;SDS011;11910;52.086;21.066;2022-11-23T10:36:22;32.47;;;20.85;;
23474;SDS011;11910;52.086;21.066;2022-11-23T10:38:54;31.42;;;19.85;;
23474;SDS011;11910;52.086;21.066;2022-11-23T10:41:22;32.15;;;20.52;;
23474;SDS011;11910;52.086;21.066;2022-11-23T10:49:14;29.23;;;18.75;;
23474;SDS011;11910;52.086;21.066;2022-11-23T10:56:55;31.73;;;19.15;;
23474;SDS011;11910;52.086;21.066;2022-11-23T10:59:26;29.48;;;18.65;;
23474;SDS011;11910;52.086;21.066;2022-11-23T11:04:35;29.52;;;19.25;;
23474;SDS011;11910;52.086;21.066;2022-11-23T11:09:50;33.33;;;19.83;;
23474;SDS011;11910;52.086;21.066;2022-11-23T11:12:18;30.88;;;19.45;;
23474;SDS011;11910;52.086;21.066;2022-11-23T11:14:54;32.13;;;19.73;;
23474;SDS011;11910;52.086;21.066;2022-11-23T11:17:25;30.33;;;18.90;;
23474;SDS011;11910;52.086;21.066;2022-11-23T11:22:26;29.83;;;19.60;;
23474;SDS011;11910;52.086;21.066;2022-11-23T11:24:57;29.58;;;18.10;;
23474;SDS011;11910;52.086;21.066;2022-11-23T11:27:23;28.88;;;18.52;;
23474;SDS011;11910;52.086;21.066;2022-11-23T11:29:53;30.23;;;18.90;;
23474;SDS011;11910;52.086;21.066;2022-11-23T11:35:20;32.45;;;20.73;;
23474;SDS011;11910;52.086;21.066;2022-11-23T11:37:48;35.13;;;21.08;;
23474;SDS011;11910;52.086;21.066;2022-11-23T11:41:03;40.08;;;23.23;;
23474;SDS011;11910;52.086;21.066;2022-11-23T11:45:46;36.50;;;22.30;;
23474;SDS011;11910;52.086;21.066;2022-11-23T11:48:26;35.88;;;22.33;;
23474;SDS011;11910;52.086;21.066;2022-11-23T11:51:13;36.25;;;22.85;;
23474;SDS011;11910;52.086;21.066;2022-11-23T11:56:38;41.88;;;24.42;;
23474;SDS011;11910;52.086;21.066;2022-11-23T11:59:41;39.47;;;23.98;;
23474;SDS011;11910;52.086;21.066;2022-11-23T12:04:42;44.83;;;25.45;;
23474;SDS011;11910;52.086;21.066;2022-11-23T12:09:55;42.75;;;24.65;;
23474;SDS011;11910;52.086;21.066;2022-11-23T12:12:31;41.88;;;25.13;;
23474;SDS011;11910;52.086;21.066;2022-11-23T12:14:58;41.05;;;24.42;;
23474;SDS011;11910;52.086;21.066;2022-11-23T12:31:49;51.15;;;29.05;;
23474;SDS011;11910;52.086;21.066;2022-11-23T12:37:01;50.10;;;29.20;;
23474;SDS011;11910;52.086;21.066;2022-11-23T12:58:30;46.40;;;26.13;;
23474;SDS011;11910;52.086;21.066;2022-11-23T13:17:52;43.35;;;26.30;;
23474;SDS011;11910;52.086;21.066;2022-11-23T13:23:32;42.35;;;24.58;;
23474;SDS011;11910;52.086;21.066;2022-11-23T13:28:46;47.67;;;27.48;;
23474;SDS011;11910;52.086;21.066;2022-11-23T13:33:39;51.85;;;29.30;;
23474;SDS011;11910;52.086;21.066;2022-11-23T13:36:09;50.05;;;28.60;;
23474;SDS011;11910;52.086;21.066;2022-11-23T13:38:42;51.05;;;30.00;;
23474;SDS011;11910;52.086;21.066;2022-11-23T13:46:42;47.17;;;26.58;;
23474;SDS011;11910;52.086;21.066;2022-11-23T13:49:29;45.17;;;26.20;;
23474;SDS011;11910;52.086;21.066;2022-11-23T13:54:52;50.78;;;29.02;;
23474;SDS011;11910;52.086;21.066;2022-11-23T13:57:34;56.05;;;30.85;;
23474;SDS011;11910;52.086;21.066;2022-11-23T14:08:43;49.65;;;28.95;;
23474;SDS011;11910;52.086;21.066;2022-11-23T14:11:11;51.03;;;29.00;;
23474;SDS011;11910;52.086;21.066;2022-11-23T14:13:44;47.22;;;28.02;;
23474;SDS011;11910;52.086;21.066;2022-11-23T14:22:22;55.50;;;31.80;;
23474;SDS011;11910;52.086;21.066;2022-11-23T14:25:15;58.83;;;33.53;;
23474;SDS011;11910;52.086;21.066;2022-11-23T14:33:24;59.72;;;34.25;;
23474;SDS011;11910;52.086;21.066;2022-11-23T14:41:38;61.22;;;33.40;;
23474;SDS011;11910;52.086;21.066;2022-11-23T14:44:07;56.05;;;32.50;;
23474;SDS011;11910;52.086;21.066;2022-11-23T14:46:37;65.53;;;35.97;;
23474;SDS011;11910;52.086;21.066;2022-11-23T14:49:27;61.88;;;33.97;;
23474;SDS011;11910;52.086;21.066;2022-11-23T14:51:54;63.63;;;34.35;;
23474;SDS011;11910;52.086;21.066;2022-11-23T14:54:20;65.40;;;35.65;;
23474;SDS011;11910;52.086;21.066;2022-11-23T14:56:47;62.50;;;33.90;;
23474;SDS011;11910;52.086;21.066;2022-11-23T15:02:04;62.30;;;33.33;;
23474;SDS011;11910;52.086;21.066;2022-11-23T15:04:50;59.60;;;31.92;;
23474;SDS011;11910;52.086;21.066;2022-11-23T15:07:25;59.13;;;31.15;;
23474;SDS011;11910;52.086;21.066;2022-11-23T15:09:58;57.45;;;31.23;;
23474;SDS011;11910;52.086;21.066;2022-11-23T15:17:51;60.40;;;31.40;;
23474;SDS011;11910;52.086;21.066;2022-11-23T15:20:21;62.15;;;32.97;;
23474;SDS011;11910;52.086;21.066;2022-11-23T15:22:51;57.60;;;33.30;;
23474;SDS011;11910;52.086;21.066;2022-11-23T15:25:17;60.08;;;33.28;;
23474;SDS011;11910;52.086;21.066;2022-11-23T15:27:44;61.72;;;33.35;;
23474;SDS011;11910;52.086;21.066;2022-11-23T15:30:13;60.88;;;33.83;;
23474;SDS011;11910;52.086;21.066;2022-11-23T15:35:19;63.35;;;32.92;;
23474;SDS011;11910;52.086;21.066;2022-11-23T15:37:47;65.30;;;33.90;;
23474;SDS011;11910;52.086;21.066;2022-11-23T15:40:14;65.05;;;34.75;;
23474;SDS011;11910;52.086;21.066;2022-11-23T15:42:45;64.97;;;35.08;;
23474;SDS011;11910;52.086;21.066;2022-11-23T15:47:59;67.18;;;35.60;;
23474;SDS011;11910;52.086;21.066;2022-11-23T15:50:26;66.95;;;34.72;;
23474;SDS011;11910;52.086;21.066;2022-11-23T15:52:52;68.30;;;36.85;;
23474;SDS011;11910;52.086;21.066;2022-11-23T15:55:17;61.85;;;35.08;;
23474;SDS011;11910;52.086;21.066;2022-11-23T15:57:48;67.57;;;34.88;;
23474;SDS011;11910;52.086;21.066;2022-11-23T16:00:21;67.25;;;35.15;;
23474;SDS011;11910;52.086;21.066;2022-11-23T16:02:49;72.85;;;37.45;;
23474;SDS011;11910;52.086;21.066;2022-11-23T16:07:58;70.85;;;35.55;;
23474;SDS011;11910;52.086;21.066;2022-11-23T16:10:26;67.43;;;35.88;;
23474;SDS011;11910;52.086;21.066;2022-11-23T16:12:56;68.68;;;35.47;;
23474;SDS011;11910;52.086;21.066;2022-11-23T16:17:56;66.60;;;32.58;;
23474;SDS011;11910;52.086;21.066;2022-11-23T16:20:25;63.08;;;33.17;;
23474;SDS011;11910;52.086;21.066;2022-11-23T16:22:53;59.78;;;33.22;;
23474;SDS011;11910;52.086;21.066;2022-11-23T16:25:32;60.55;;;32.40;;
23474;SDS011;11910;52.086;21.066;2022-11-23T16:27:59;62.65;;;33.40;;
23474;SDS011;11910;52.086;21.066;2022-11-23T16:30:41;61.85;;;32.92;;
23474;SDS011;11910;52.086;21.066;2022-11-23T16:33:14;60.78;;;33.33;;
23474;SDS011;11910;52.086;21.066;2022-11-23T16:35:42;61.03;;;32.55;;
23474;SDS011;11910;52.086;21.066;2022-11-23T16:38:08;58.05;;;31.00;;
23474;SDS011;11910;52.086;21.066;2022-11-23T16:40:33;60.58;;;32.53;;
23474;SDS011;11910;52.086;21.066;2022-11-23T16:42:59;64.78;;;34.42;;
23474;SDS011;11910;52.086;21.066;2022-11-23T16:45:25;59.60;;;32.58;;
23474;SDS011;11910;52.086;21.066;2022-11-23T16:47:55;62.83;;;34.95;;
23474;SDS011;11910;52.086;21.066;2022-11-23T16:50:26;61.25;;;32.63;;
23474;SDS011;11910;52.086;21.066;2022-11-23T16:52:56;56.28;;;30.52;;
23474;SDS011;11910;52.086;21.066;2022-11-23T16:55:39;54.03;;;31.20;;
23474;SDS011;11910;52.086;21.066;2022-11-23T16:58:05;55.90;;;30.33;;
23474;SDS011;11910;52.086;21.066;2022-11-23T17:00:38;58.40;;;32.17;;
23474;SDS011;11910;52.086;21.066;2022-11-23T17:03:03;57.92;;;30.63;;
23474;SDS011;11910;52.086;21.066;2022-11-23T17:05:29;53.95;;;29.38;;
23474;SDS011;11910;52.086;21.066;2022-11-23T17:07:55;56.03;;;30.50;;